Zenith Leader — 2ACU6 — position and weather

sailwx.info

Track history (hours):
 
Tides and Currents Weather Stations Pressure Air Temp Water Temp Dewpoint Dewpoint Depression Visibility Wind Speed Wind Dir Waves Ship Positions

Zenith Leader

Last reported at 2016-May-27 15:31 UTC. Time now 2016-May-27 16:09 UTC.
Position N 51°19' E 003°14'.

Length 200 m; draft 8.3 m.

Type: Cargo ship. MMSI: 235058697.

Date/timePositionNaut miles runAvg speedWind from/ knotsBaromVisibWave heightAir tempDewpointWater temp
2016-May-27 15:31N 51°19' E 003°14'0 0.0
2016-May-27 14:33N 51°19' E 003°14'0 0.0
2016-May-27 13:31N 51°19' E 003°14'0 0.0
2016-May-27 12:31N 51°19' E 003°14'1 1.5
2016-May-27 11:33N 51°20' E 003°13'0 0.1
2016-May-27 10:33N 51°20' E 003°13'8 7.6
2016-May-27 09:33N 51°24' E 003°03'1212.2
2016-May-27 08:33N 51°22' E 002°44'7 7.1
2016-May-27 07:33N 51°22' E 002°33'10 9.9
2016-May-27 06:33N 51°18' E 002°18'1212.2
2016-May-27 05:34N 51°12' E 002°01'1716.7
2016-May-27 04:34N 51°02' E 001°40'1817.4
2016-May-27 03:32N 50°46' E 001°26'1616.6
2016-May-27 02:33N 50°35' E 001°07'1716.9
2016-May-27 01:33N 50°27' E 000°44'1817.9
2016-May-27 00:33N 50°21' E 000°17'1918.6
2016-May-26 23:34N 50°16' W 000°10'1918.9
2016-May-26 22:33N 50°10' W 000°39'1919.1
2016-May-26 21:33N 50°05' W 001°07'5116.8
2016-May-26 18:32N 49°54' W 002°24'1414.7
2016-May-26 17:33N 49°50' W 002°46'1414.3
2016-May-26 16:34N 49°48' W 003°08'1414.4
2016-May-26 15:34N 49°46' W 003°30'1414.4
2016-May-26 14:34N 49°44' W 003°52'1614.6
2016-May-26 13:30N 49°42' W 004°16'1414.2
2016-May-26 12:29N 49°39' W 004°37'1414.4
2016-May-26 11:32N 49°39' W 004°59'1514.2
2016-May-26 10:26N 49°40' W 005°22'1212.3
2016-May-26 09:29N 49°41' W 005°41'1111.4
2016-May-26 08:31N 49°44' W 005°57'1313.6
2016-May-26 07:33N 49°57' W 006°01'1515.0
2016-May-26 06:33N 50°12' W 006°01'1514.7
2016-May-26 05:33N 50°27' W 006°01'1514.5
2016-May-26 04:33N 50°39' W 005°49'1515.5
2016-May-26 03:33N 50°51' W 005°34'1615.9
2016-May-26 02:33N 51°04' W 005°18'1616.1
2016-May-26 01:33N 51°16' W 005°02'1716.5
2016-May-26 00:33N 51°19' W 004°36'1818.4
2016-May-25 23:33N 51°19' W 004°07'1919.1
2016-May-25 22:33N 51°20' W 003°36'1514.5
2016-May-25 21:33N 51°22' W 003°13'1212.3
2016-May-25 20:33N 51°28' W 002°56'8 8.0
2016-May-25 19:33N 51°30' W 002°44'0 0.4
2016-May-25 18:33N 51°30' W 002°43'0 0.0
2016-May-25 17:33N 51°30' W 002°43'0 0.0
2016-May-25 16:33N 51°30' W 002°43'0 0.0
2016-May-25 15:33N 51°30' W 002°43'0 0.0
2016-May-25 14:33N 51°30' W 002°43'0 0.0
2016-May-25 13:33N 51°30' W 002°43'0 0.0
2016-May-25 12:33N 51°30' W 002°43'0 0.0
2016-May-25 11:33N 51°30' W 002°43'0 0.0
2016-May-25 10:33N 51°30' W 002°43'0 0.0
2016-May-25 09:33N 51°30' W 002°43'0 0.0
2016-May-25 08:33N 51°30' W 002°43'0 0.4
2016-May-25 07:33N 51°30' W 002°43'1 0.9
2016-May-25 06:34N 51°31' W 002°44'1111.0
2016-May-25 05:33N 51°27' W 002°60'1312.6
2016-May-25 04:33N 51°21' W 003°18'11 7.9
2016-May-25 03:13N 51°20' W 003°35'913.8
2016-May-25 02:33N 51°20' W 003°50'1413.7
2016-May-25 01:30N 51°19' W 004°13'1313.3
2016-May-25 00:33N 51°19' W 004°33'1312.8
2016-May-24 23:33N 51°18' W 004°53'1313.2
2016-May-24 22:33N 51°12' W 005°12'1413.6
2016-May-24 21:33N 51°04' W 005°29'1413.8
2016-May-24 20:33N 50°55' W 005°47'1515.2
2016-May-24 19:33N 50°46' W 006°06'6515.7
2016-May-24 15:23N 49°46' W 006°45'1615.8
2016-May-24 14:24N 49°31' W 006°52'62615.3
2016-May-22 21:29N 39°18' W 009°51'1314.5
2016-May-22 20:33N 39°04' W 009°51'1514.6
2016-May-22 19:33N 38°50' W 009°51'1514.6
2016-May-22 18:33N 38°35' W 009°49'1514.6
2016-May-22 17:33N 38°21' W 009°45'1414.4
2016-May-22 16:33N 38°07' W 009°41'1414.4
2016-May-22 15:33N 37°53' W 009°37'1514.7
2016-May-22 14:33N 37°38' W 009°33'1614.6
2016-May-22 13:28N 37°23' W 009°28'1614.7
2016-May-22 12:22N 37°07' W 009°24'19714.3
2016-May-21 22:34N 35°58' W 005°33'1110.6
2016-May-21 21:34N 36°02' W 005°21'13614.9
2016-May-21 12:25N 36°23' W 002°35'8416.4
2016-May-21 07:18N 37°11' W 001°09'1216.1
2016-May-21 06:33N 37°18' W 000°57'1615.9
2016-May-21 05:33N 37°29' W 000°42'1615.7
2016-May-21 04:33N 37°40' W 000°29'1615.8
2016-May-21 03:34N 37°53' W 000°18'1615.9
2016-May-21 02:33N 38°07' W 000°06'1615.8
2016-May-21 01:33N 38°20' E 000°04'1615.8
2016-May-21 00:33N 38°34' E 000°15'1414.7
2016-May-20 23:33N 38°47' E 000°24'2015.3
2016-May-20 22:15N 39°06' E 000°20'1114.6
2016-May-20 21:31N 39°17' E 000°18'1914.8
2016-May-20 20:13N 39°29' W 000°02'913.5
2016-May-20 19:33N 39°34' W 000°10'5 1.7
2016-May-20 16:29N 39°39' W 000°13'0 0.0
2016-May-20 15:11N 39°39' W 000°13'0 0.0
2016-May-20 14:23N 39°39' W 000°13'0 0.0
2016-May-20 13:29N 39°39' W 000°13'0 0.0
2016-May-20 04:33N 39°39' W 000°13'4 3.8
2016-May-20 03:33N 39°36' W 000°10'2 2.3
2016-May-20 02:33N 39°38' W 000°07'20 9.0
2016-May-20 00:23N 39°39' E 000°18'2212.0
2016-May-19 22:33N 39°41' E 000°47'1111.0
2016-May-19 21:33N 39°42' E 001°01'1312.7
2016-May-19 20:33N 39°53' E 001°10'1212.1
2016-May-19 19:33N 40°04' E 001°17'1212.0
2016-May-19 18:33N 40°14' E 001°25'1515.1
2016-May-19 17:33N 40°27' E 001°35'1615.8
2016-May-19 16:33N 40°41' E 001°46'1616.3
2016-May-19 15:33N 40°55' E 001°57'27 5.2
2016-May-19 10:27N 41°20' E 002°09'0 0.0
2016-May-19 09:33N 41°20' E 002°09'0 0.0
2016-May-19 08:27N 41°20' E 002°09'0 0.0
2016-May-19 07:27N 41°20' E 002°09'0 0.0
2016-May-19 06:21N 41°20' E 002°09'0 0.0
2016-May-19 05:33N 41°20' E 002°09'0 0.0
2016-May-19 04:31N 41°20' E 002°09'4 4.3
2016-May-19 03:33N 41°16' E 002°12'5 4.9
2016-May-19 02:33N 41°16' E 002°18'1 1.1
2016-May-19 01:33N 41°15' E 002°19'0 0.1
2016-May-19 00:33N 41°16' E 002°19'0 0.1
2016-May-18 21:33N 41°16' E 002°20'0 0.2
2016-May-18 20:33N 41°16' E 002°20'0 0.3
2016-May-18 19:32N 41°16' E 002°19'2 1.7
2016-May-18 18:33N 41°17' E 002°21'0 0.1
2016-May-18 17:33N 41°17' E 002°21'1 1.4
2016-May-18 16:33N 41°16' E 002°20'1 1.5
2016-May-18 15:32N 41°17' E 002°21'2 1.6
2016-May-18 14:33N 41°15' E 002°20'7 6.8
2016-May-18 13:33N 41°18' E 002°29'1010.2
2016-May-18 12:33N 41°19' E 002°42'1110.6
2016-May-18 11:33N 41°20' E 002°56'1313.3
2016-May-18 10:33N 41°24' E 003°13'1616.3
2016-May-18 09:33N 41°30' E 003°33'6416.1
2016-May-18 05:33N 41°55' E 004°52'4816.1
2016-May-18 02:33N 42°13' E 005°53'1616.1
2016-May-18 01:33N 42°19' E 006°13'10316.1
2016-May-17 19:07N 42°59' E 008°23'916.0
2016-May-17 18:34N 43°02' E 008°34'1615.8
2016-May-17 17:33N 43°08' E 008°55'1615.8
2016-May-17 16:33N 43°12' E 009°15'1615.6
2016-May-17 15:34N 43°15' E 009°36'  
Track history (hours):
 
Tides and Currents Weather Stations Pressure Air Temp Water Temp Dewpoint Dewpoint Depression Visibility Wind Speed Wind Dir Waves Ship Positions

Zenith Leader

Last reported at 2016-May-27 15:31 UTC. Time now 2016-May-27 16:09 UTC.
Position N 51°19' E 003°14'.

Length 200 m; draft 8.3 m.

Type: Cargo ship. MMSI: 235058697.

Date/timePositionNaut miles runAvg speedWind from/ knotsBaromVisibWave heightAir tempDewpointWater temp
2016-May-27 15:31N 51°19' E 003°14'0 0.0
2016-May-27 14:33N 51°19' E 003°14'0 0.0
2016-May-27 13:31N 51°19' E 003°14'0 0.0
2016-May-27 12:31N 51°19' E 003°14'1 1.5
2016-May-27 11:33N 51°20' E 003°13'0 0.1
2016-May-27 10:33N 51°20' E 003°13'8 7.6
2016-May-27 09:33N 51°24' E 003°03'1212.2
2016-May-27 08:33N 51°22' E 002°44'7 7.1
2016-May-27 07:33N 51°22' E 002°33'10 9.9
2016-May-27 06:33N 51°18' E 002°18'1212.2
2016-May-27 05:34N 51°12' E 002°01'1716.7
2016-May-27 04:34N 51°02' E 001°40'1817.4
2016-May-27 03:32N 50°46' E 001°26'1616.6
2016-May-27 02:33N 50°35' E 001°07'1716.9
2016-May-27 01:33N 50°27' E 000°44'1817.9
2016-May-27 00:33N 50°21' E 000°17'1918.6
2016-May-26 23:34N 50°16' W 000°10'1918.9
2016-May-26 22:33N 50°10' W 000°39'1919.1
2016-May-26 21:33N 50°05' W 001°07'5116.8
2016-May-26 18:32N 49°54' W 002°24'1414.7
2016-May-26 17:33N 49°50' W 002°46'1414.3
2016-May-26 16:34N 49°48' W 003°08'1414.4
2016-May-26 15:34N 49°46' W 003°30'1414.4
2016-May-26 14:34N 49°44' W 003°52'1614.6
2016-May-26 13:30N 49°42' W 004°16'1414.2
2016-May-26 12:29N 49°39' W 004°37'1414.4
2016-May-26 11:32N 49°39' W 004°59'1514.2
2016-May-26 10:26N 49°40' W 005°22'1212.3
2016-May-26 09:29N 49°41' W 005°41'1111.4
2016-May-26 08:31N 49°44' W 005°57'1313.6
2016-May-26 07:33N 49°57' W 006°01'1515.0
2016-May-26 06:33N 50°12' W 006°01'1514.7
2016-May-26 05:33N 50°27' W 006°01'1514.5
2016-May-26 04:33N 50°39' W 005°49'1515.5
2016-May-26 03:33N 50°51' W 005°34'1615.9
2016-May-26 02:33N 51°04' W 005°18'1616.1
2016-May-26 01:33N 51°16' W 005°02'1716.5
2016-May-26 00:33N 51°19' W 004°36'1818.4
2016-May-25 23:33N 51°19' W 004°07'1919.1
2016-May-25 22:33N 51°20' W 003°36'1514.5
2016-May-25 21:33N 51°22' W 003°13'1212.3
2016-May-25 20:33N 51°28' W 002°56'8 8.0
2016-May-25 19:33N 51°30' W 002°44'0 0.4
2016-May-25 18:33N 51°30' W 002°43'0 0.0
2016-May-25 17:33N 51°30' W 002°43'0 0.0
2016-May-25 16:33N 51°30' W 002°43'0 0.0
2016-May-25 15:33N 51°30' W 002°43'0 0.0
2016-May-25 14:33N 51°30' W 002°43'0 0.0
2016-May-25 13:33N 51°30' W 002°43'0 0.0
2016-May-25 12:33N 51°30' W 002°43'0 0.0
2016-May-25 11:33N 51°30' W 002°43'0 0.0
2016-May-25 10:33N 51°30' W 002°43'0 0.0
2016-May-25 09:33N 51°30' W 002°43'0 0.0
2016-May-25 08:33N 51°30' W 002°43'0 0.4
2016-May-25 07:33N 51°30' W 002°43'1 0.9
2016-May-25 06:34N 51°31' W 002°44'1111.0
2016-May-25 05:33N 51°27' W 002°60'1312.6
2016-May-25 04:33N 51°21' W 003°18'11 7.9
2016-May-25 03:13N 51°20' W 003°35'913.8
2016-May-25 02:33N 51°20' W 003°50'1413.7
2016-May-25 01:30N 51°19' W 004°13'1313.3
2016-May-25 00:33N 51°19' W 004°33'1312.8
2016-May-24 23:33N 51°18' W 004°53'1313.2
2016-May-24 22:33N 51°12' W 005°12'1413.6
2016-May-24 21:33N 51°04' W 005°29'1413.8
2016-May-24 20:33N 50°55' W 005°47'1515.2
2016-May-24 19:33N 50°46' W 006°06'6515.7
2016-May-24 15:23N 49°46' W 006°45'1615.8
2016-May-24 14:24N 49°31' W 006°52'62615.3
2016-May-22 21:29N 39°18' W 009°51'1314.5
2016-May-22 20:33N 39°04' W 009°51'1514.6
2016-May-22 19:33N 38°50' W 009°51'1514.6
2016-May-22 18:33N 38°35' W 009°49'1514.6
2016-May-22 17:33N 38°21' W 009°45'1414.4
2016-May-22 16:33N 38°07' W 009°41'1414.4
2016-May-22 15:33N 37°53' W 009°37'1514.7
2016-May-22 14:33N 37°38' W 009°33'1614.6
2016-May-22 13:28N 37°23' W 009°28'1614.7
2016-May-22 12:22N 37°07' W 009°24'19714.3
2016-May-21 22:34N 35°58' W 005°33'1110.6
2016-May-21 21:34N 36°02' W 005°21'13614.9
2016-May-21 12:25N 36°23' W 002°35'8416.4
2016-May-21 07:18N 37°11' W 001°09'1216.1
2016-May-21 06:33N 37°18' W 000°57'1615.9
2016-May-21 05:33N 37°29' W 000°42'1615.7
2016-May-21 04:33N 37°40' W 000°29'1615.8
2016-May-21 03:34N 37°53' W 000°18'1615.9
2016-May-21 02:33N 38°07' W 000°06'1615.8
2016-May-21 01:33N 38°20' E 000°04'1615.8
2016-May-21 00:33N 38°34' E 000°15'1414.7
2016-May-20 23:33N 38°47' E 000°24'2015.3
2016-May-20 22:15N 39°06' E 000°20'1114.6
2016-May-20 21:31N 39°17' E 000°18'1914.8
2016-May-20 20:13N 39°29' W 000°02'913.5
2016-May-20 19:33N 39°34' W 000°10'5 1.7
2016-May-20 16:29N 39°39' W 000°13'0 0.0
2016-May-20 15:11N 39°39' W 000°13'0 0.0
2016-May-20 14:23N 39°39' W 000°13'0 0.0
2016-May-20 13:29N 39°39' W 000°13'0 0.0
2016-May-20 04:33N 39°39' W 000°13'4 3.8
2016-May-20 03:33N 39°36' W 000°10'2 2.3
2016-May-20 02:33N 39°38' W 000°07'20 9.0
2016-May-20 00:23N 39°39' E 000°18'2212.0
2016-May-19 22:33N 39°41' E 000°47'1111.0
2016-May-19 21:33N 39°42' E 001°01'1312.7
2016-May-19 20:33N 39°53' E 001°10'1212.1
2016-May-19 19:33N 40°04' E 001°17'1212.0
2016-May-19 18:33N 40°14' E 001°25'1515.1
2016-May-19 17:33N 40°27' E 001°35'1615.8
2016-May-19 16:33N 40°41' E 001°46'1616.3
2016-May-19 15:33N 40°55' E 001°57'27 5.2
2016-May-19 10:27N 41°20' E 002°09'0 0.0
2016-May-19 09:33N 41°20' E 002°09'0 0.0
2016-May-19 08:27N 41°20' E 002°09'0 0.0
2016-May-19 07:27N 41°20' E 002°09'0 0.0
2016-May-19 06:21N 41°20' E 002°09'0 0.0
2016-May-19 05:33N 41°20' E 002°09'0 0.0
2016-May-19 04:31N 41°20' E 002°09'4 4.3
2016-May-19 03:33N 41°16' E 002°12'5 4.9
2016-May-19 02:33N 41°16' E 002°18'1 1.1
2016-May-19 01:33N 41°15' E 002°19'0 0.1
2016-May-19 00:33N 41°16' E 002°19'0 0.1
2016-May-18 21:33N 41°16' E 002°20'0 0.2
2016-May-18 20:33N 41°16' E 002°20'0 0.3
2016-May-18 19:32N 41°16' E 002°19'2 1.7
2016-May-18 18:33N 41°17' E 002°21'0 0.1
2016-May-18 17:33N 41°17' E 002°21'1 1.4
2016-May-18 16:33N 41°16' E 002°20'1 1.5
2016-May-18 15:32N 41°17' E 002°21'2 1.6
2016-May-18 14:33N 41°15' E 002°20'7 6.8
2016-May-18 13:33N 41°18' E 002°29'1010.2
2016-May-18 12:33N 41°19' E 002°42'1110.6
2016-May-18 11:33N 41°20' E 002°56'1313.3
2016-May-18 10:33N 41°24' E 003°13'1616.3
2016-May-18 09:33N 41°30' E 003°33'6416.1
2016-May-18 05:33N 41°55' E 004°52'4816.1
2016-May-18 02:33N 42°13' E 005°53'1616.1
2016-May-18 01:33N 42°19' E 006°13'10316.1
2016-May-17 19:07N 42°59' E 008°23'916.0
2016-May-17 18:34N 43°02' E 008°34'1615.8
2016-May-17 17:33N 43°08' E 008°55'1615.8
2016-May-17 16:33N 43°12' E 009°15'1615.6
2016-May-17 15:34N 43°15' E 009°36'  

Dump ship's entire track history